Time;durP1;ratioP1;P1;durP2;ratioP2;P2;SDS_P1;SDS_P2;PMS_P1;PMS_P2;Temp;Humidity;BMP_temperature;BMP_pressure;BME280_temperature;BME280_humidity;BME280_pressure;Samples;Min_cycle;Max_cycle;Signal;HPM_P1;HPM_P2
2022/12/01 00:01:25;;;;;;;39.60;22.75;;;;;;;6.35;100.00;102581.44;4996833;28;20100;-50
2022/12/01 00:03:53;;;;;;;47.53;26.85;;;;;;;6.39;100.00;102577.28;5012227;28;20068;-49
2022/12/01 00:06:21;;;;;;;47.10;26.48;;;;;;;6.42;100.00;102577.94;4980135;28;20089;-50
2022/12/01 00:11:41;;;;;;;40.00;24.30;;;;;;;6.41;100.00;102577.09;5014380;28;20061;-46
2022/12/01 00:14:09;;;;;;;39.58;22.67;;;;;;;6.33;100.00;102580.78;5011623;28;20489;-50
2022/12/01 00:16:39;;;;;;;37.35;21.80;;;;;;;6.37;100.00;102579.38;5002338;28;20069;-49
2022/12/01 00:19:07;;;;;;;44.72;26.00;;;;;;;6.40;100.00;102578.97;5004483;28;20043;-51
2022/12/01 00:21:35;;;;;;;38.17;22.35;;;;;;;6.34;100.00;102574.34;5014103;28;20040;-48
2022/12/01 00:24:02;;;;;;;42.50;24.67;;;;;;;6.27;100.00;102578.84;5000704;28;20041;-50
2022/12/01 00:26:30;;;;;;;39.15;23.90;;;;;;;6.28;100.00;102577.00;4954688;28;20129;-53
2022/12/01 00:28:59;;;;;;;39.97;23.52;;;;;;;6.25;100.00;102580.09;5013659;28;20058;-49
2022/12/01 00:31:27;;;;;;;45.83;25.80;;;;;;;6.20;100.00;102577.97;5009112;28;20038;-52
2022/12/01 00:33:54;;;;;;;45.20;24.70;;;;;;;6.24;100.00;102575.72;5005362;28;20053;-46
2022/12/01 00:36:22;;;;;;;39.25;23.60;;;;;;;6.25;100.00;102569.25;5011350;28;20038;-48
2022/12/01 00:38:54;;;;;;;42.40;24.35;;;;;;;6.19;100.00;102568.19;4977095;28;20185;-48
2022/12/01 00:41:23;;;;;;;47.80;27.20;;;;;;;6.11;100.00;102566.47;4975497;28;20116;-51
2022/12/01 00:43:51;;;;;;;43.15;26.50;;;;;;;6.14;100.00;102567.94;4995823;28;20113;-48
2022/12/01 00:46:19;;;;;;;46.03;26.20;;;;;;;6.13;100.00;102572.53;5009754;28;20043;-50
2022/12/01 00:48:47;;;;;;;43.03;25.42;;;;;;;6.13;100.00;102575.22;4984800;28;20161;-48
2022/12/01 00:51:15;;;;;;;45.85;26.15;;;;;;;6.16;100.00;102565.88;5007350;28;20050;-52
2022/12/01 00:53:42;;;;;;;42.67;24.88;;;;;;;6.14;100.00;102567.94;4981994;28;20042;-50
2022/12/01 00:56:10;;;;;;;40.17;24.02;;;;;;;6.20;100.00;102572.56;4995787;28;20049;-50
2022/12/01 00:58:37;;;;;;;47.50;26.52;;;;;;;6.18;100.00;102574.63;5005185;28;20054;-48
2022/12/01 01:01:05;;;;;;;42.83;24.67;;;;;;;6.10;100.00;102580.19;5013293;28;20041;-46
2022/12/01 01:03:33;;;;;;;43.28;25.15;;;;;;;5.98;100.00;102575.28;5007088;28;20034;-46
2022/12/01 01:06:09;;;;;;;39.28;22.92;;;;;;;6.00;100.00;102582.38;4998907;28;20045;-47
2022/12/01 01:08:37;;;;;;;;;;;;;;;6.01;100.00;102575.94;5013483;28;20053;-48
2022/12/01 01:11:06;;;;;;;42.33;24.67;;;;;;;6.02;100.00;102577.63;4976907;28;20296;-50
2022/12/01 01:13:34;;;;;;;42.13;24.42;;;;;;;6.05;100.00;102585.34;5004904;28;20033;-49
2022/12/01 01:16:04;;;;;;;40.53;24.23;;;;;;;6.10;100.00;102580.19;5008782;28;20042;-47
2022/12/01 01:18:32;;;;;;;42.58;25.05;;;;;;;6.11;100.00;102587.25;5003483;28;20412;-47
2022/12/01 01:21:03;;;;;;;43.72;25.02;;;;;;;6.11;100.00;102585.41;4981670;28;20038;-50
2022/12/01 01:23:31;;;;;;;44.30;25.10;;;;;;;6.13;100.00;102588.75;5012687;28;20121;-50
2022/12/01 01:26:12;;;;;;;38.58;22.15;;;;;;;6.14;100.00;102589.59;5011091;28;20057;-49
2022/12/01 01:28:40;;;;;;;39.85;22.73;;;;;;;6.07;100.00;102588.69;4999500;28;20530;-52
2022/12/01 01:31:10;;;;;;;41.40;24.02;;;;;;;6.11;100.00;102595.38;4978069;28;20066;-50
2022/12/01 01:33:37;;;;;;;44.17;25.42;;;;;;;6.08;100.00;102595.75;5013005;28;20042;-50
2022/12/01 01:36:06;;;;;;;41.28;23.98;;;;;;;6.10;100.00;102593.72;5006267;28;20045;-49
2022/12/01 01:38:34;;;;;;;43.13;23.40;;;;;;;6.14;100.00;102603.94;4998798;28;20118;-46
2022/12/01 01:41:02;;;;;;;43.30;25.02;;;;;;;6.20;100.00;102607.75;4989776;28;20055;-50
2022/12/01 01:43:42;;;;;;;44.67;25.45;;;;;;;6.19;100.00;102606.06;4961426;28;20047;-50
2022/12/01 01:46:31;;;;;;;41.88;24.60;;;;;;;6.15;100.00;102604.78;4982222;28;20047;-49
2022/12/01 01:49:08;;;;;;;41.90;24.92;;;;;;;6.15;100.00;102611.03;4973949;28;20090;-47
2022/12/01 01:51:41;;;;;;;43.88;26.25;;;;;;;6.11;100.00;102600.78;4973567;28;20051;-51
2022/12/01 01:54:16;;;;;;;38.40;22.65;;;;;;;6.08;100.00;102602.00;4977367;28;20042;-46
2022/12/01 01:56:44;;;;;;;44.13;25.83;;;;;;;6.12;100.00;102603.31;5008346;28;20049;-49
2022/12/01 01:59:14;;;;;;;41.55;24.08;;;;;;;6.15;100.00;102602.91;5016781;28;20038;-50
2022/12/01 02:01:41;;;;;;;42.65;25.15;;;;;;;6.17;100.00;102600.84;4999666;28;20046;-52
2022/12/01 02:04:09;;;;;;;42.65;25.73;;;;;;;6.19;100.00;102606.06;5016808;28;20038;-47
2022/12/01 02:06:36;;;;;;;47.30;26.75;;;;;;;6.11;100.00;102598.94;5010402;28;20042;-50
2022/12/01 02:09:04;;;;;;;40.80;24.00;;;;;;;6.09;100.00;102597.47;4960299;28;20101;-48
2022/12/01 02:11:50;;;;;;;46.10;26.13;;;;;;;6.17;100.00;102603.56;4977412;28;20053;-48
2022/12/01 02:14:40;;;;;;;45.72;25.42;;;;;;;6.21;100.00;102595.91;4983673;28;20039;-50
2022/12/01 02:17:21;;;;;;;45.15;25.70;;;;;;;6.19;100.00;102603.38;4978847;28;20049;-50
2022/12/01 02:20:26;;;;;;;43.17;25.77;;;;;;;6.10;100.00;102599.13;4979738;28;20104;-51
2022/12/01 02:23:38;;;;;;;46.38;26.52;;;;;;;6.14;100.00;102595.84;4977166;28;20039;-49
2022/12/01 02:26:14;;;;;;;48.45;27.13;;;;;;;6.18;100.00;102601.69;4917105;29;20575;-47
2022/12/01 02:28:41;;;;;;;47.60;25.00;;;;;;;6.16;100.00;102604.59;4922882;29;20043;-50
2022/12/01 02:31:13;;;;;;;45.38;26.00;;;;;;;6.19;100.00;102600.66;4983248;28;20393;-50
2022/12/01 02:33:54;;;;;;;42.47;24.50;;;;;;;6.18;100.00;102607.09;4994042;28;20042;-47
2022/12/01 02:36:38;;;;;;;43.95;24.73;;;;;;;6.19;100.00;102601.50;4994271;28;20046;-50
2022/12/01 02:39:09;;;;;;;40.47;24.30;;;;;;;6.22;100.00;102607.56;4998732;28;20128;-47
2022/12/01 02:41:47;;;;;;;42.90;24.98;;;;;;;6.17;100.00;102605.44;5012871;28;20050;-49
2022/12/01 02:44:26;;;;;;;40.83;24.58;;;;;;;6.17;100.00;102602.72;4983668;28;20409;-51
2022/12/01 02:47:00;;;;;;;44.25;25.98;;;;;;;6.20;100.00;102605.03;4992504;28;20385;-50
2022/12/01 02:49:34;;;;;;;41.13;24.83;;;;;;;6.22;100.00;102602.97;4990170;28;20057;-50
2022/12/01 02:52:05;;;;;;;41.60;24.98;;;;;;;6.17;100.00;102598.13;4990400;28;20117;-49
2022/12/01 02:54:33;;;;;;;41.47;24.70;;;;;;;6.14;100.00;102601.25;4978507;28;20051;-52
2022/12/01 02:57:00;;;;;;;43.17;24.30;;;;;;;6.15;100.00;102610.19;4981965;28;20045;-50
2022/12/01 02:59:28;;;;;;;37.90;23.30;;;;;;;6.16;100.00;102609.19;4988534;28;20043;-50
2022/12/01 03:02:08;;;;;;;39.50;24.38;;;;;;;6.14;100.00;102611.25;5011743;28;20046;-51
2022/12/01 03:04:35;;;;;;;37.67;23.13;;;;;;;6.10;100.00;102604.53;5005709;28;20046;-50
2022/12/01 03:07:12;;;;;;;40.67;25.45;;;;;;;6.11;100.00;102614.31;4997363;28;20064;-48
2022/12/01 03:09:45;;;;;;;39.85;23.50;;;;;;;6.11;100.00;102606.19;5015616;28;20045;-48
2022/12/01 03:12:33;;;;;;;38.20;23.67;;;;;;;6.14;100.00;102606.66;4999228;28;20493;-51
2022/12/01 03:15:09;;;;;;;40.30;24.00;;;;;;;6.14;100.00;102611.25;5006803;28;20045;-48
2022/12/01 03:17:45;;;;;;;40.83;24.50;;;;;;;6.14;100.00;102612.06;4997847;28;20404;-51
2022/12/01 03:20:24;;;;;;;36.70;21.85;;;;;;;6.15;100.00;102612.91;5015183;28;20042;-48
2022/12/01 03:22:58;;;;;;;40.00;23.58;;;;;;;6.17;100.00;102608.13;4997812;28;20038;-52
2022/12/01 03:25:27;;;;;;;36.75;22.67;;;;;;;6.18;100.00;102601.69;4991445;28;20480;-50
2022/12/01 03:27:57;;;;;;;35.20;21.80;;;;;;;6.15;100.00;102607.50;4967833;28;20053;-50
2022/12/01 03:30:45;;;;;;;39.08;23.85;;;;;;;6.04;100.00;102614.28;5007014;28;20046;-49
2022/12/01 03:33:42;;;;;;;32.63;21.65;;;;;;;6.06;100.00;102605.94;4992068;28;20055;-47
2022/12/01 03:36:14;;;;;;;35.92;22.77;;;;;;;6.10;100.00;102609.94;5012449;28;20137;-49
2022/12/01 03:38:45;;;;;;;36.28;21.70;;;;;;;6.08;100.00;102603.88;5000736;28;20034;-50
2022/12/01 03:41:18;;;;;;;37.50;22.58;;;;;;;6.07;100.00;102602.22;4991222;28;20046;-49
2022/12/01 03:43:50;;;;;;;36.10;22.92;;;;;;;6.08;100.00;102601.19;4991554;28;20041;-48
2022/12/01 03:46:23;;;;;;;40.70;24.25;;;;;;;6.13;100.00;102601.44;4981756;28;20382;-47
2022/12/01 03:48:53;;;;;;;36.45;21.42;;;;;;;6.15;100.00;102607.50;5013524;28;20042;-51
2022/12/01 03:51:30;;;;;;;38.10;22.98;;;;;;;6.13;100.00;102604.13;4984162;28;20120;-52
2022/12/01 03:54:51;;;;;;;34.03;22.13;;;;;;;6.09;100.00;102605.56;4995292;28;20060;-49
2022/12/01 03:57:33;;;;;;;36.38;22.58;;;;;;;6.05;100.00;102607.81;4962161;28;20104;-50
2022/12/01 04:00:02;;;;;;;36.08;22.10;;;;;;;6.07;100.00;102603.06;5015253;28;20117;-51
2022/12/01 04:02:39;;;;;;;33.95;21.80;;;;;;;6.07;100.00;102615.75;5014325;28;20050;-52
2022/12/01 04:05:08;;;;;;;35.97;22.77;;;;;;;6.08;100.00;102623.66;5010833;28;20448;-53
2022/12/01 04:07:36;;;;;;;32.75;22.00;;;;;;;6.11;100.00;102619.72;5015579;28;20042;-52
2022/12/01 04:10:05;;;;;;;35.03;22.10;;;;;;;6.12;100.00;102619.53;5014836;28;20042;-50
2022/12/01 04:12:33;;;;;;;34.90;22.92;;;;;;;6.10;100.00;102610.78;5003438;28;20560;-52
2022/12/01 04:15:11;;;;;;;32.45;20.92;;;;;;;6.11;100.00;102617.03;5005282;28;20069;-48
2022/12/01 04:17:43;;;;;;;35.50;21.88;;;;;;;6.07;100.00;102616.59;5013893;28;20416;-47
2022/12/01 04:20:14;;;;;;;35.58;22.60;;;;;;;6.05;100.00;102612.41;4981196;28;20050;-50
2022/12/01 04:22:42;;;;;;;36.15;22.25;;;;;;;6.04;100.00;102616.13;5011524;28;20038;-51
2022/12/01 04:25:10;;;;;;;35.67;21.63;;;;;;;6.00;100.00;102620.25;5005928;28;20044;-48
2022/12/01 04:27:38;;;;;;;34.80;21.50;;;;;;;5.98;100.00;102621.28;5013835;28;20050;-49
2022/12/01 04:30:07;;;;;;;34.38;21.60;;;;;;;6.02;100.00;102615.50;5013904;28;20038;-48
2022/12/01 04:32:39;;;;;;;32.83;21.48;;;;;;;6.05;100.00;102618.63;4990272;28;20050;-48
2022/12/01 04:35:09;;;;;;;34.42;22.25;;;;;;;6.01;100.00;102611.09;4965044;28;20045;-48
2022/12/01 04:37:37;;;;;;;35.53;23.35;;;;;;;6.02;100.00;102613.63;4990762;28;20095;-46
2022/12/01 04:40:05;;;;;;;36.65;21.67;;;;;;;6.04;100.00;102611.56;5000219;28;20496;-51
2022/12/01 04:42:33;;;;;;;31.20;20.65;;;;;;;6.08;100.00;102612.00;4993341;28;20073;-51
2022/12/01 04:45:00;;;;;;;35.63;23.00;;;;;;;6.08;100.00;102606.59;5010729;28;20096;-50
2022/12/01 04:47:28;;;;;;;34.33;22.70;;;;;;;6.04;100.00;102605.28;5002358;28;20052;-49
2022/12/01 04:49:55;;;;;;;36.92;22.30;;;;;;;6.03;100.00;102609.03;5011456;28;20046;-51
2022/12/01 04:52:23;;;;;;;34.13;22.45;;;;;;;6.05;100.00;102601.56;5006485;28;20579;-49
2022/12/01 04:54:51;;;;;;;33.90;21.85;;;;;;;6.10;100.00;102607.25;5009889;28;20093;-48
2022/12/01 04:57:18;;;;;;;33.47;22.92;;;;;;;6.08;100.00;102614.72;5005689;28;20047;-48
2022/12/01 04:59:46;;;;;;;34.92;22.67;;;;;;;6.09;100.00;102608.28;5010858;28;20046;-49
2022/12/01 05:02:14;;;;;;;33.65;21.48;;;;;;;6.11;100.00;102606.19;5011917;28;20069;-48
2022/12/01 05:04:44;;;;;;;32.67;21.65;;;;;;;6.11;100.00;102608.91;5011280;28;20060;-50
2022/12/01 05:07:12;;;;;;;33.42;22.15;;;;;;;6.10;100.00;102609.94;5012468;28;20038;-48
2022/12/01 05:09:40;;;;;;;33.95;23.02;;;;;;;6.04;100.00;102608.00;4999906;28;20042;-50
2022/12/01 05:12:07;;;;;;;33.50;22.35;;;;;;;6.01;100.00;102611.94;5005956;28;20520;-48
2022/12/01 05:14:35;;;;;;;36.40;22.63;;;;;;;6.00;100.00;102614.84;4992487;28;20046;-49
2022/12/01 05:17:02;;;;;;;38.90;24.23;;;;;;;6.04;100.00;102616.13;5012214;28;20476;-50
2022/12/01 05:22:17;;;;;;;37.22;24.33;;;;;;;6.00;100.00;102612.97;4982014;28;20050;-50
2022/12/01 05:25:05;;;;;;;36.47;22.52;;;;;;;5.96;100.00;102614.38;5008921;28;20049;-47
2022/12/01 05:27:32;;;;;;;36.65;23.40;;;;;;;5.92;100.00;102621.19;5012963;28;20054;-48
2022/12/01 05:30:00;;;;;;;35.03;22.75;;;;;;;5.91;100.00;102623.03;4998752;28;20416;-48
2022/12/01 05:32:27;;;;;;;38.03;23.33;;;;;;;5.96;100.00;102619.78;5008847;28;20465;-50
2022/12/01 05:34:55;;;;;;;37.00;23.85;;;;;;;5.95;100.00;102618.97;5013263;28;20412;-47
2022/12/01 05:37:23;;;;;;;37.10;24.27;;;;;;;5.94;100.00;102625.41;4980836;28;20501;-49
2022/12/01 05:39:50;;;;;;;42.70;26.58;;;;;;;5.93;100.00;102623.69;4976039;28;20489;-49
2022/12/01 05:42:18;;;;;;;39.25;25.42;;;;;;;5.90;100.00;102626.78;4996402;28;20042;-50
2022/12/01 05:44:45;;;;;;;40.13;24.35;;;;;;;5.84;100.00;102627.53;4997007;28;20108;-51
2022/12/01 05:47:13;;;;;;;38.08;23.45;;;;;;;5.87;100.00;102629.88;5008369;28;20038;-51
2022/12/01 05:49:40;;;;;;;38.45;24.65;;;;;;;5.91;100.00;102623.03;5001494;28;20501;-49
2022/12/01 05:52:08;;;;;;;38.40;24.02;;;;;;;5.92;100.00;102619.31;5008028;28;20034;-51
2022/12/01 05:54:36;;;;;;;38.80;24.45;;;;;;;5.91;100.00;102623.03;4961018;28;20042;-47
2022/12/01 05:57:03;;;;;;;38.08;23.90;;;;;;;5.90;100.00;102632.19;5006388;28;20468;-48
2022/12/01 05:59:31;;;;;;;38.60;24.10;;;;;;;5.92;100.00;102635.56;5009497;28;20459;-49
2022/12/01 06:01:58;;;;;;;40.08;24.48;;;;;;;5.83;100.00;102628.59;5006195;28;20046;-51
2022/12/01 06:04:26;;;;;;;40.72;23.55;;;;;;;5.79;100.00;102635.41;5003453;28;20452;-48
2022/12/01 06:06:53;;;;;;;40.75;23.15;;;;;;;5.83;100.00;102631.28;5004481;28;20117;-51
2022/12/01 06:09:21;;;;;;;40.22;23.90;;;;;;;5.85;100.00;102631.94;5003968;28;20046;-50
2022/12/01 06:11:49;;;;;;;41.08;23.20;;;;;;;5.86;100.00;102632.78;5000578;28;20042;-51
2022/12/01 06:14:20;;;;;;;40.95;24.08;;;;;;;5.86;100.00;102630.06;4981219;28;20050;-54
2022/12/01 06:16:47;;;;;;;39.88;23.15;;;;;;;5.87;100.00;102631.72;4992257;28;20046;-48
2022/12/01 06:19:15;;;;;;;41.58;25.10;;;;;;;5.92;100.00;102643.69;4978645;28;20074;-50
2022/12/01 06:21:43;;;;;;;42.97;24.63;;;;;;;5.89;100.00;102633.25;4976103;28;20494;-51
2022/12/01 06:24:10;;;;;;;40.33;23.92;;;;;;;5.93;100.00;102634.50;4991944;28;20567;-50
2022/12/01 06:26:38;;;;;;;41.60;24.70;;;;;;;5.86;100.00;102625.50;4991658;28;20109;-49
2022/12/01 06:29:05;;;;;;;43.63;24.63;;;;;;;5.89;100.00;102630.53;4992209;28;20039;-49
2022/12/01 06:31:44;;;;;;;39.88;22.42;;;;;;;5.95;100.00;102629.78;4668811;28;10001246;-50
2022/12/01 06:34:11;;;;;;;42.08;24.65;;;;;;;5.95;100.00;102631.66;4958028;28;20259;-52
2022/12/01 06:36:39;;;;;;;39.50;23.88;;;;;;;5.86;100.00;102633.59;4995586;28;20042;-51
2022/12/01 06:39:10;;;;;;;40.63;24.13;;;;;;;5.88;100.00;102628.00;5001684;28;20047;-46
2022/12/01 06:41:38;;;;;;;41.05;24.85;;;;;;;5.91;100.00;102628.44;5011419;28;20065;-45
2022/12/01 06:44:06;;;;;;;40.13;23.38;;;;;;;5.97;100.00;102625.03;5012605;28;20056;-47
2022/12/01 06:46:33;;;;;;;41.97;25.27;;;;;;;5.97;100.00;102638.56;5003436;28;20064;-48
2022/12/01 06:49:01;;;;;;;40.53;25.15;;;;;;;5.94;100.00;102638.09;5012337;28;20049;-46
2022/12/01 06:51:30;;;;;;;38.75;23.08;;;;;;;5.84;100.00;102638.38;5010831;28;20056;-47
2022/12/01 06:53:57;;;;;;;38.67;22.98;;;;;;;5.84;100.00;102643.78;5000252;28;20097;-48
2022/12/01 06:56:31;;;;;;;40.15;23.08;;;;;;;5.89;100.00;102648.63;5008550;28;20042;-48
2022/12/01 06:58:59;;;;;;;39.45;23.88;;;;;;;5.89;100.00;102654.03;5001701;28;20069;-46
2022/12/01 07:01:27;;;;;;;39.75;24.27;;;;;;;5.83;100.00;102657.50;5010681;28;20033;-47
2022/12/01 07:03:55;;;;;;;40.58;24.05;;;;;;;5.80;100.00;102664.16;4994748;28;20042;-47
2022/12/01 07:06:23;;;;;;;39.33;24.45;;;;;;;5.81;100.00;102665.81;5005445;28;20053;-45
2022/12/01 07:08:51;;;;;;;40.10;23.92;;;;;;;5.83;100.00;102671.88;5002478;28;20100;-45
2022/12/01 07:11:18;;;;;;;40.17;23.75;;;;;;;5.76;100.00;102674.50;4997962;28;20519;-48
2022/12/01 07:13:48;;;;;;;42.53;25.67;;;;;;;5.79;100.00;102667.03;5015231;28;20042;-51
2022/12/01 07:16:16;;;;;;;41.45;24.33;;;;;;;5.83;100.00;102665.63;5012233;28;20115;-48
2022/12/01 07:18:44;;;;;;;35.90;22.58;;;;;;;5.84;100.00;102668.13;4994955;28;20061;-45
2022/12/01 07:21:13;;;;;;;39.42;23.83;;;;;;;5.82;100.00;102670.22;4977728;28;20052;-47
2022/12/01 07:23:40;;;;;;;38.95;24.30;;;;;;;5.88;100.00;102666.72;4977424;28;20038;-48
2022/12/01 07:26:16;;;;;;;41.72;24.60;;;;;;;5.88;100.00;102674.00;4999254;28;20042;-50
2022/12/01 07:28:44;;;;;;;40.95;23.70;;;;;;;5.86;100.00;102676.06;5009355;28;20117;-46
2022/12/01 07:31:15;;;;;;;39.88;25.02;;;;;;;5.85;100.00;102672.53;4997736;28;20042;-49
2022/12/01 07:33:43;;;;;;;38.30;22.70;;;;;;;5.84;100.00;102673.53;4977683;28;20062;-48
2022/12/01 07:36:12;;;;;;;38.72;23.70;;;;;;;5.81;100.00;102676.63;5003030;28;20057;-49
2022/12/01 07:38:40;;;;;;;38.38;24.67;;;;;;;5.81;100.00;102682.03;4989621;28;20048;-50
2022/12/01 07:41:13;;;;;;;39.63;24.45;;;;;;;5.80;100.00;102674.97;5006790;28;20050;-50
2022/12/01 07:43:41;;;;;;;38.67;24.15;;;;;;;5.77;100.00;102680.72;4995707;28;20153;-48
2022/12/01 07:46:17;;;;;;;39.17;24.77;;;;;;;5.77;100.00;102686.13;5000485;28;20456;-50
2022/12/01 07:48:50;;;;;;;37.00;23.00;;;;;;;5.85;100.00;102677.94;5006067;28;20110;-46
2022/12/01 07:51:19;;;;;;;36.50;23.95;;;;;;;5.88;100.00;102677.53;4996483;28;20042;-46
2022/12/01 07:53:48;;;;;;;39.80;23.60;;;;;;;5.94;100.00;102681.38;4996644;28;20038;-47
2022/12/01 07:56:16;;;;;;;37.85;23.63;;;;;;;5.98;100.00;102685.38;4989826;28;20050;-49
2022/12/01 07:58:43;;;;;;;35.58;22.42;;;;;;;5.92;100.00;102684.25;4983424;28;20049;-49
2022/12/01 08:01:14;;;;;;;37.53;24.35;;;;;;;5.89;100.00;102683.78;4996208;28;20509;-46
2022/12/01 08:03:42;;;;;;;39.38;23.90;;;;;;;5.86;100.00;102693.13;5013381;28;20038;-48
2022/12/01 08:06:10;;;;;;;36.17;23.60;;;;;;;5.87;100.00;102697.53;5003271;28;20138;-49
2022/12/01 08:08:39;;;;;;;37.30;23.13;;;;;;;5.89;100.00;102695.47;5006985;28;20076;-49
2022/12/01 08:11:11;;;;;;;42.13;24.23;;;;;;;5.85;100.00;102699.56;4997202;28;20042;-50
2022/12/01 08:13:39;;;;;;;36.70;23.38;;;;;;;5.79;100.00;102700.31;5000862;28;20050;-49
2022/12/01 08:16:09;;;;;;;37.55;23.90;;;;;;;5.74;100.00;102708.16;5005999;28;20042;-48
2022/12/01 08:18:38;;;;;;;36.35;23.13;;;;;;;5.78;100.00;102706.78;4978632;28;20045;-49
2022/12/01 08:21:07;;;;;;;33.88;22.65;;;;;;;5.87;100.00;102705.63;4988755;28;20049;-51
2022/12/01 08:23:35;;;;;;;40.25;24.20;;;;;;;5.93;100.00;102707.56;4991417;28;20058;-50
2022/12/01 08:26:04;;;;;;;36.30;23.45;;;;;;;5.94;100.00;102709.28;4996386;28;20038;-50
2022/12/01 08:28:34;;;;;;;38.60;24.67;;;;;;;5.96;100.00;102706.38;5012211;28;20054;-51
2022/12/01 08:31:10;;;;;;;38.63;24.15;;;;;;;5.87;100.00;102702.94;5014123;28;20046;-50
2022/12/01 08:33:38;;;;;;;;;;;;;;;5.84;100.00;102708.69;4996626;28;20069;-49
2022/12/01 08:36:06;;;;;;;39.38;25.15;;;;;;;5.85;100.00;102713.09;5005115;28;19922;-48
2022/12/01 08:38:33;;;;;;;37.42;23.88;;;;;;;5.83;100.00;102706.19;4988437;28;20049;-49
2022/12/01 08:41:03;;;;;;;37.75;24.63;;;;;;;5.83;100.00;102709.75;5007939;28;20057;-48
2022/12/01 08:43:31;;;;;;;36.80;24.95;;;;;;;5.80;100.00;102712.84;5000754;28;20041;-50
2022/12/01 08:46:18;;;;;;;38.47;24.10;;;;;;;5.83;100.00;102711.63;4997586;28;20038;-50
2022/12/01 08:48:46;;;;;;;37.72;25.40;;;;;;;5.82;100.00;102715.31;4996256;28;20053;-50
2022/12/01 08:51:16;;;;;;;38.72;25.52;;;;;;;5.78;100.00;102717.59;4999840;28;20096;-49
2022/12/01 08:53:47;;;;;;;41.35;27.52;;;;;;;5.72;100.00;102718.31;4973609;28;20056;-50
2022/12/01 08:56:40;;;;;;;40.20;26.45;;;;;;;5.68;100.00;102722.47;4976581;28;20047;-48
2022/12/01 08:59:08;;;;;;;42.35;27.38;;;;;;;5.66;100.00;102713.69;4983248;28;20104;-47
2022/12/01 09:01:51;;;;;;;42.08;26.08;;;;;;;5.73;100.00;102717.31;4993987;28;20046;-48
2022/12/01 09:04:21;;;;;;;40.25;26.38;;;;;;;5.78;100.00;102723.00;4943282;28;20043;-50
2022/12/01 09:06:50;;;;;;;38.15;25.83;;;;;;;5.78;100.00;102720.28;5006985;28;20045;-51
2022/12/01 09:09:23;;;;;;;39.08;25.50;;;;;;;5.83;100.00;102722.44;5013307;28;20049;-51
2022/12/01 09:11:51;;;;;;;43.95;26.75;;;;;;;5.84;100.00;102716.81;4981818;28;20050;-49
2022/12/01 09:14:20;;;;;;;37.17;25.08;;;;;;;5.87;100.00;102716.47;4960633;28;20118;-49
2022/12/01 09:16:49;;;;;;;40.65;27.17;;;;;;;5.89;100.00;102719.81;5002317;28;20050;-48
2022/12/01 09:19:18;;;;;;;41.58;26.90;;;;;;;5.86;100.00;102725.59;5000042;28;20041;-48
2022/12/01 09:21:52;;;;;;;44.80;27.67;;;;;;;5.89;100.00;102717.13;4988667;28;20046;-51
2022/12/01 09:24:19;;;;;;;41.15;26.88;;;;;;;5.89;100.00;102721.66;5006380;28;20041;-49
2022/12/01 09:26:48;;;;;;;38.70;25.15;;;;;;;5.88;100.00;102723.53;5013664;28;20050;-48
2022/12/01 09:29:16;;;;;;;46.25;28.52;;;;;;;5.92;100.00;102714.00;4997465;28;20085;-46
2022/12/01 09:31:44;;;;;;;43.47;27.25;;;;;;;5.91;100.00;102725.84;5002044;28;20038;-45
2022/12/01 09:34:14;;;;;;;43.50;28.15;;;;;;;5.83;100.00;102728.69;5005128;28;20042;-47
2022/12/01 09:36:42;;;;;;;45.95;28.42;;;;;;;5.85;100.00;102728.50;5007110;28;20038;-50
2022/12/01 09:39:13;;;;;;;48.17;30.45;;;;;;;5.89;100.00;102729.78;4986152;28;20093;-48
2022/12/01 09:41:53;;;;;;;47.00;28.70;;;;;;;5.90;100.00;102734.16;4993221;28;20089;-46
2022/12/01 09:44:49;;;;;;;48.03;28.23;;;;;;;5.94;100.00;102739.06;4992429;28;20042;-48
2022/12/01 09:47:46;;;;;;;42.00;27.55;;;;;;;6.03;100.00;102725.41;4991118;28;20445;-48
2022/12/01 09:50:18;;;;;;;49.33;29.65;;;;;;;6.09;100.00;102727.34;4959666;28;20054;-48
2022/12/01 09:52:50;;;;;;;45.53;27.70;;;;;;;6.14;100.00;102725.75;4975787;28;20045;-48
2022/12/01 09:55:20;;;;;;;45.13;27.92;;;;;;;6.25;100.00;102727.09;4993060;28;20035;-47
2022/12/01 09:57:51;;;;;;;46.80;28.75;;;;;;;6.22;100.00;102719.38;4973060;28;20047;-46
2022/12/01 10:00:41;;;;;;;45.45;28.80;;;;;;;6.18;100.00;102716.22;4992383;28;20039;-50
2022/12/01 10:03:18;;;;;;;47.00;29.23;;;;;;;6.15;100.00;102713.88;4958387;28;20457;-50
2022/12/01 10:05:47;;;;;;;;;;;;;;;6.18;100.00;102715.34;4993354;28;20069;-51
2022/12/01 10:08:41;;;;;;;46.05;28.30;;;;;;;6.17;100.00;102708.28;4972180;28;20380;-50
2022/12/01 10:11:33;;;;;;;39.97;25.85;;;;;;;6.15;100.00;102704.91;4975473;28;20034;-49
2022/12/01 10:14:02;;;;;;;42.53;27.45;;;;;;;6.22;100.00;102705.81;4981075;28;20046;-49
2022/12/01 10:16:36;;;;;;;46.38;28.52;;;;;;;6.24;100.00;102703.78;4995795;28;20057;-51
2022/12/01 10:19:15;;;;;;;49.55;28.85;;;;;;;6.27;100.00;102706.09;4974023;28;20054;-50
2022/12/01 10:22:19;;;;;;;45.40;29.33;;;;;;;6.28;100.00;102702.38;4996243;28;20527;-50
2022/12/01 10:25:11;;;;;;;42.03;26.60;;;;;;;6.34;100.00;102693.44;4976915;28;20057;-50
2022/12/01 10:27:48;;;;;;;45.88;28.45;;;;;;;6.32;100.00;102698.22;4967788;28;20617;-50
2022/12/01 10:30:19;;;;;;;45.33;27.67;;;;;;;6.26;100.00;102699.00;4996386;28;20089;-51
2022/12/01 10:32:57;;;;;;;46.08;27.45;;;;;;;6.23;100.00;102696.69;4973470;28;20034;-52
2022/12/01 10:35:28;;;;;;;42.85;25.77;;;;;;;6.29;100.00;102695.91;4996405;28;20053;-49
2022/12/01 10:38:01;;;;;;;41.60;26.60;;;;;;;6.36;100.00;102693.28;4968349;28;20046;-52
2022/12/01 10:40:33;;;;;;;42.80;25.38;;;;;;;6.37;100.00;102693.09;4990404;28;20050;-55
2022/12/01 10:43:02;;;;;;;42.80;26.33;;;;;;;6.35;100.00;102687.03;5007810;28;20034;-48
2022/12/01 10:45:36;;;;;;;42.05;26.75;;;;;;;6.37;100.00;102697.63;4998163;28;20041;-48
2022/12/01 10:48:16;;;;;;;42.85;26.30;;;;;;;6.38;100.00;102683.91;5015862;28;20050;-50
2022/12/01 10:50:50;;;;;;;41.72;27.10;;;;;;;6.39;100.00;102685.59;5008203;28;20046;-51
2022/12/01 10:53:21;;;;;;;41.28;24.90;;;;;;;6.37;100.00;102676.84;5007076;28;20464;-52
2022/12/01 10:56:13;;;;;;;35.47;22.20;;;;;;;6.38;100.00;102677.66;5006144;28;20492;-52
2022/12/01 10:58:53;;;;;;;39.63;24.27;;;;;;;6.33;100.00;102674.72;4954657;28;20523;-51
2022/12/01 11:01:30;;;;;;;40.15;25.45;;;;;;;6.35;100.00;102676.19;5015599;28;20066;-49
2022/12/01 11:04:06;;;;;;;42.13;24.67;;;;;;;6.37;100.00;102675.97;4987271;28;20567;-52
2022/12/01 11:06:34;;;;;;;38.38;23.27;;;;;;;6.36;100.00;102675.16;4986641;28;20049;-49
2022/12/01 11:09:06;;;;;;;40.20;25.38;;;;;;;6.33;100.00;102680.97;5015371;28;20041;-48
2022/12/01 11:11:37;;;;;;;40.05;25.48;;;;;;;6.30;100.00;102670.53;4998279;28;20440;-52
2022/12/01 11:14:16;;;;;;;41.72;26.05;;;;;;;6.31;100.00;102666.78;5006675;28;20125;-49
2022/12/01 11:16:47;;;;;;;44.67;27.00;;;;;;;6.38;100.00;102666.84;4991860;28;20053;-51
2022/12/01 11:19:32;;;;;;;47.10;27.02;;;;;;;6.38;100.00;102675.78;5003355;28;20049;-51
2022/12/01 11:22:16;;;;;;;45.03;27.08;;;;;;;6.37;100.00;102679.56;4998047;28;20054;-51
2022/12/01 11:24:51;;;;;;;47.65;26.17;;;;;;;6.35;100.00;102673.50;4983423;28;20042;-48
2022/12/01 11:28:00;;;;;;;41.03;27.45;;;;;;;6.35;100.00;102672.63;4999435;28;20524;-48
2022/12/01 11:30:29;;;;;;;40.30;26.50;;;;;;;6.34;100.00;102663.66;5015173;28;20085;-48
2022/12/01 11:33:01;;;;;;;45.47;27.58;;;;;;;6.36;100.00;102669.72;4998109;28;20092;-48
2022/12/01 11:35:35;;;;;;;45.83;27.40;;;;;;;6.36;100.00;102666.19;4980814;28;20109;-49
2022/12/01 11:38:05;;;;;;;43.42;26.25;;;;;;;6.31;100.00;102655.94;4959895;28;20035;-49